sensor_id;sensor_type;location;lat;lon;timestamp;pressure;altitude;pressure_sealevel;temperature;humidity
5413;BME280;2729;50.056;8.678;2023-03-21T00:00:58;100523.81;;;12.20;100.00
5413;BME280;2729;50.056;8.678;2023-03-21T00:03:24;100528.00;;;12.26;100.00
5413;BME280;2729;50.056;8.678;2023-03-21T00:05:51;100521.28;;;12.17;100.00
5413;BME280;2729;50.056;8.678;2023-03-21T00:08:19;100516.66;;;12.27;100.00
5413;BME280;2729;50.056;8.678;2023-03-21T00:10:46;100518.31;;;12.29;100.00
5413;BME280;2729;50.056;8.678;2023-03-21T00:13:14;100520.25;;;12.22;100.00
5413;BME280;2729;50.056;8.678;2023-03-21T00:15:41;100516.50;;;12.31;100.00
5413;BME280;2729;50.056;8.678;2023-03-21T00:18:20;100511.31;;;12.30;100.00
5413;BME280;2729;50.056;8.678;2023-03-21T00:21:01;100514.31;;;12.16;100.00
5413;BME280;2729;50.056;8.678;2023-03-21T00:23:29;100513.03;;;12.31;100.00
5413;BME280;2729;50.056;8.678;2023-03-21T00:25:58;100503.66;;;12.23;100.00
5413;BME280;2729;50.056;8.678;2023-03-21T00:28:25;100505.81;;;12.08;100.00
5413;BME280;2729;50.056;8.678;2023-03-21T00:30:57;100506.53;;;12.14;100.00
5413;BME280;2729;50.056;8.678;2023-03-21T00:33:23;100502.69;;;12.26;100.00
5413;BME280;2729;50.056;8.678;2023-03-21T00:35:52;100499.97;;;12.31;100.00
5413;BME280;2729;50.056;8.678;2023-03-21T00:38:22;100505.19;;;12.31;100.00
5413;BME280;2729;50.056;8.678;2023-03-21T00:40:48;100501.59;;;12.35;100.00
5413;BME280;2729;50.056;8.678;2023-03-21T00:43:15;100498.41;;;12.23;100.00
5413;BME280;2729;50.056;8.678;2023-03-21T00:45:43;100497.63;;;12.20;100.00
5413;BME280;2729;50.056;8.678;2023-03-21T00:48:09;100495.75;;;12.25;100.00
5413;BME280;2729;50.056;8.678;2023-03-21T00:50:36;100480.81;;;11.98;100.00
5413;BME280;2729;50.056;8.678;2023-03-21T00:53:04;100482.13;;;12.14;100.00
5413;BME280;2729;50.056;8.678;2023-03-21T00:55:30;100484.16;;;12.03;100.00
5413;BME280;2729;50.056;8.678;2023-03-21T00:57:56;100474.25;;;11.83;100.00
5413;BME280;2729;50.056;8.678;2023-03-21T01:00:25;100469.19;;;11.75;100.00
5413;BME280;2729;50.056;8.678;2023-03-21T01:02:53;100470.91;;;11.76;100.00
5413;BME280;2729;50.056;8.678;2023-03-21T01:05:24;100468.16;;;11.82;100.00
5413;BME280;2729;50.056;8.678;2023-03-21T01:08:11;100474.81;;;11.60;100.00
5413;BME280;2729;50.056;8.678;2023-03-21T01:10:39;100471.16;;;11.67;100.00
5413;BME280;2729;50.056;8.678;2023-03-21T01:13:05;100473.19;;;11.56;100.00
5413;BME280;2729;50.056;8.678;2023-03-21T01:15:31;100474.47;;;11.40;100.00
5413;BME280;2729;50.056;8.678;2023-03-21T01:17:57;100470.41;;;11.28;100.00
5413;BME280;2729;50.056;8.678;2023-03-21T01:20:23;100472.38;;;11.18;100.00
5413;BME280;2729;50.056;8.678;2023-03-21T01:22:49;100467.31;;;11.12;100.00
5413;BME280;2729;50.056;8.678;2023-03-21T01:25:15;100473.72;;;10.99;100.00
5413;BME280;2729;50.056;8.678;2023-03-21T01:27:41;100467.56;;;11.02;100.00
5413;BME280;2729;50.056;8.678;2023-03-21T01:30:09;100471.09;;;10.99;100.00
5413;BME280;2729;50.056;8.678;2023-03-21T01:32:35;100473.88;;;10.93;100.00
5413;BME280;2729;50.056;8.678;2023-03-21T01:35:01;100469.59;;;10.89;100.00
5413;BME280;2729;50.056;8.678;2023-03-21T01:37:27;100460.88;;;10.90;100.00
5413;BME280;2729;50.056;8.678;2023-03-21T01:39:56;100464.66;;;10.77;100.00
5413;BME280;2729;50.056;8.678;2023-03-21T01:42:22;100477.16;;;10.62;100.00
5413;BME280;2729;50.056;8.678;2023-03-21T01:45:00;100463.31;;;10.59;100.00
5413;BME280;2729;50.056;8.678;2023-03-21T01:47:35;100469.72;;;10.44;100.00
5413;BME280;2729;50.056;8.678;2023-03-21T01:50:05;100462.84;;;10.39;100.00
5413;BME280;2729;50.056;8.678;2023-03-21T01:52:38;100461.19;;;10.35;100.00
5413;BME280;2729;50.056;8.678;2023-03-21T01:55:16;100465.63;;;10.31;100.00
5413;BME280;2729;50.056;8.678;2023-03-21T01:58:07;100467.41;;;10.29;100.00
5413;BME280;2729;50.056;8.678;2023-03-21T02:00:48;100456.06;;;10.31;100.00
5413;BME280;2729;50.056;8.678;2023-03-21T02:03:32;100460.47;;;10.28;100.00
5413;BME280;2729;50.056;8.678;2023-03-21T02:06:28;100451.75;;;10.29;100.00
5413;BME280;2729;50.056;8.678;2023-03-21T02:09:07;100457.91;;;10.26;100.00
5413;BME280;2729;50.056;8.678;2023-03-21T02:11:34;100449.63;;;10.05;100.00
5413;BME280;2729;50.056;8.678;2023-03-21T02:14:03;100451.41;;;10.03;100.00
5413;BME280;2729;50.056;8.678;2023-03-21T02:16:50;100449.88;;;9.91;100.00
5413;BME280;2729;50.056;8.678;2023-03-21T02:19:37;100442.31;;;9.79;100.00
5413;BME280;2729;50.056;8.678;2023-03-21T02:25:13;100435.41;;;9.76;100.00
5413;BME280;2729;50.056;8.678;2023-03-21T02:27:59;100439.28;;;9.54;100.00
5413;BME280;2729;50.056;8.678;2023-03-21T02:30:44;100436.78;;;9.48;100.00
5413;BME280;2729;50.056;8.678;2023-03-21T02:33:38;100438.50;;;9.49;100.00
5413;BME280;2729;50.056;8.678;2023-03-21T02:36:25;100437.94;;;9.31;100.00
5413;BME280;2729;50.056;8.678;2023-03-21T02:39:12;100429.31;;;9.29;100.00
5413;BME280;2729;50.056;8.678;2023-03-21T02:41:50;100429.31;;;9.29;100.00
5413;BME280;2729;50.056;8.678;2023-03-21T02:44:45;100428.41;;;9.32;100.00
5413;BME280;2729;50.056;8.678;2023-03-21T02:47:21;100428.38;;;9.33;100.00
5413;BME280;2729;50.056;8.678;2023-03-21T02:49:55;100428.59;;;9.20;100.00
5413;BME280;2729;50.056;8.678;2023-03-21T02:52:28;100427.81;;;9.15;100.00
5413;BME280;2729;50.056;8.678;2023-03-21T02:54:57;100425.47;;;8.99;100.00
5413;BME280;2729;50.056;8.678;2023-03-21T02:57:32;100425.47;;;8.99;100.00
5413;BME280;2729;50.056;8.678;2023-03-21T03:00:01;100426.34;;;8.98;100.00
5413;BME280;2729;50.056;8.678;2023-03-21T03:02:36;100425.41;;;9.04;100.00
5413;BME280;2729;50.056;8.678;2023-03-21T03:05:12;100428.00;;;9.04;100.00
5413;BME280;2729;50.056;8.678;2023-03-21T03:07:44;100436.59;;;9.09;100.00
5413;BME280;2729;50.056;8.678;2023-03-21T03:10:26;100427.75;;;9.19;100.00
5413;BME280;2729;50.056;8.678;2023-03-21T03:13:20;100427.66;;;9.24;100.00
5413;BME280;2729;50.056;8.678;2023-03-21T03:21:38;100425.22;;;9.15;100.00
5413;BME280;2729;50.056;8.678;2023-03-21T03:24:16;100421.06;;;9.03;100.00
5413;BME280;2729;50.056;8.678;2023-03-21T03:26:52;100419.28;;;9.07;100.00
5413;BME280;2729;50.056;8.678;2023-03-21T03:29:22;100422.69;;;9.10;100.00
5413;BME280;2729;50.056;8.678;2023-03-21T03:31:56;100424.41;;;9.11;100.00
5413;BME280;2729;50.056;8.678;2023-03-21T03:34:32;100414.19;;;8.99;100.00
5413;BME280;2729;50.056;8.678;2023-03-21T03:37:04;100414.09;;;9.05;100.00
5413;BME280;2729;50.056;8.678;2023-03-21T03:40:03;100414.22;;;8.97;100.00
5413;BME280;2729;50.056;8.678;2023-03-21T03:42:34;100410.84;;;8.91;100.00
5413;BME280;2729;50.056;8.678;2023-03-21T03:45:15;100415.19;;;8.90;100.00
5413;BME280;2729;50.056;8.678;2023-03-21T03:47:46;100410.03;;;8.87;100.00
5413;BME280;2729;50.056;8.678;2023-03-21T03:50:41;100407.50;;;8.84;100.00
5413;BME280;2729;50.056;8.678;2023-03-21T03:53:21;100411.03;;;8.80;100.00
5413;BME280;2729;50.056;8.678;2023-03-21T03:55:52;100405.06;;;8.74;100.00
5413;BME280;2729;50.056;8.678;2023-03-21T03:58:21;100410.34;;;8.69;100.00
5413;BME280;2729;50.056;8.678;2023-03-21T04:00:47;100403.41;;;8.68;100.00
5413;BME280;2729;50.056;8.678;2023-03-21T04:03:14;100398.13;;;8.73;100.00
5413;BME280;2729;50.056;8.678;2023-03-21T04:05:40;100405.97;;;8.71;100.00
5413;BME280;2729;50.056;8.678;2023-03-21T04:08:07;100405.94;;;8.73;100.00
5413;BME280;2729;50.056;8.678;2023-03-21T04:10:41;100399.22;;;8.58;100.00
5413;BME280;2729;50.056;8.678;2023-03-21T04:13:07;100407.97;;;8.52;100.00
5413;BME280;2729;50.056;8.678;2023-03-21T04:15:43;100395.81;;;8.54;100.00
5413;BME280;2729;50.056;8.678;2023-03-21T04:18:14;100400.09;;;8.58;100.00
5413;BME280;2729;50.056;8.678;2023-03-21T04:20:40;100397.41;;;8.64;100.00
5413;BME280;2729;50.056;8.678;2023-03-21T04:23:06;100391.41;;;8.59;100.00
5413;BME280;2729;50.056;8.678;2023-03-21T04:25:34;100390.47;;;8.63;100.00
5413;BME280;2729;50.056;8.678;2023-03-21T04:28:01;100394.75;;;8.66;100.00
5413;BME280;2729;50.056;8.678;2023-03-21T04:30:56;100385.44;;;8.51;100.00
5413;BME280;2729;50.056;8.678;2023-03-21T04:33:24;100388.97;;;8.47;100.00
5413;BME280;2729;50.056;8.678;2023-03-21T04:35:54;100395.03;;;8.49;100.00
5413;BME280;2729;50.056;8.678;2023-03-21T04:38:22;100392.53;;;8.42;100.00
5413;BME280;2729;50.056;8.678;2023-03-21T04:40:48;100388.09;;;8.48;100.00
5413;BME280;2729;50.056;8.678;2023-03-21T04:43:14;100385.50;;;8.48;100.00
5413;BME280;2729;50.056;8.678;2023-03-21T04:45:40;100388.88;;;8.53;100.00
5413;BME280;2729;50.056;8.678;2023-03-21T04:48:07;100387.88;;;8.63;100.00
5413;BME280;2729;50.056;8.678;2023-03-21T04:50:33;100385.97;;;8.73;100.00
5413;BME280;2729;50.056;8.678;2023-03-21T04:52:59;100385.81;;;8.84;100.00
5413;BME280;2729;50.056;8.678;2023-03-21T04:55:26;100389.22;;;8.87;100.00
5413;BME280;2729;50.056;8.678;2023-03-21T04:57:54;100384.91;;;8.86;100.00
5413;BME280;2729;50.056;8.678;2023-03-21T05:00:20;100396.13;;;8.90;100.00
5413;BME280;2729;50.056;8.678;2023-03-21T05:02:48;100397.63;;;8.49;100.00
5413;BME280;2729;50.056;8.678;2023-03-21T05:05:14;100395.94;;;8.45;100.00
5413;BME280;2729;50.056;8.678;2023-03-21T05:07:40;100390.59;;;8.56;100.00
5413;BME280;2729;50.056;8.678;2023-03-21T05:10:08;100404.44;;;8.58;100.00
5413;BME280;2729;50.056;8.678;2023-03-21T05:12:35;100400.19;;;8.51;100.00
5413;BME280;2729;50.056;8.678;2023-03-21T05:15:00;100401.06;;;8.51;100.00
5413;BME280;2729;50.056;8.678;2023-03-21T05:17:26;100398.38;;;8.57;100.00
5413;BME280;2729;50.056;8.678;2023-03-21T05:19:53;100394.13;;;8.50;100.00
5413;BME280;2729;50.056;8.678;2023-03-21T05:22:22;100387.97;;;8.56;100.00
5413;BME280;2729;50.056;8.678;2023-03-21T05:24:50;100387.31;;;8.43;100.00
5413;BME280;2729;50.056;8.678;2023-03-21T05:27:36;100386.38;;;8.47;100.00
5413;BME280;2729;50.056;8.678;2023-03-21T05:30:10;100388.06;;;8.50;100.00
5413;BME280;2729;50.056;8.678;2023-03-21T05:32:36;100384.59;;;8.51;100.00
5413;BME280;2729;50.056;8.678;2023-03-21T05:35:04;100385.34;;;8.57;100.00
5413;BME280;2729;50.056;8.678;2023-03-21T05:37:30;100381.75;;;8.66;100.00
5413;BME280;2729;50.056;8.678;2023-03-21T05:39:56;100383.44;;;8.70;100.00
5413;BME280;2729;50.056;8.678;2023-03-21T05:42:27;100376.34;;;8.80;100.00
5413;BME280;2729;50.056;8.678;2023-03-21T05:44:53;100385.78;;;8.85;100.00
5413;BME280;2729;50.056;8.678;2023-03-21T05:47:25;100373.59;;;8.89;100.00
5413;BME280;2729;50.056;8.678;2023-03-21T05:49:52;100375.19;;;8.96;100.00
5413;BME280;2729;50.056;8.678;2023-03-21T05:52:19;100383.16;;;8.87;100.00
5413;BME280;2729;50.056;8.678;2023-03-21T05:54:45;100371.88;;;8.88;100.00
5413;BME280;2729;50.056;8.678;2023-03-21T05:57:12;100372.75;;;8.87;100.00
5413;BME280;2729;50.056;8.678;2023-03-21T05:59:50;100378.75;;;8.90;100.00
5413;BME280;2729;50.056;8.678;2023-03-21T06:02:17;100374.31;;;8.97;100.00
5413;BME280;2729;50.056;8.678;2023-03-21T06:04:44;100376.06;;;8.96;100.00
5413;BME280;2729;50.056;8.678;2023-03-21T06:07:10;100377.56;;;9.10;100.00
5413;BME280;2729;50.056;8.678;2023-03-21T06:09:38;100380.13;;;9.13;100.00
5413;BME280;2729;50.056;8.678;2023-03-21T06:12:04;100378.50;;;9.06;100.00
5413;BME280;2729;50.056;8.678;2023-03-21T06:14:46;100377.50;;;9.14;100.00
5413;BME280;2729;50.056;8.678;2023-03-21T06:17:20;100383.97;;;8.90;100.00
5413;BME280;2729;50.056;8.678;2023-03-21T06:19:54;100380.84;;;9.21;100.00
5413;BME280;2729;50.056;8.678;2023-03-21T06:22:30;100384.53;;;9.08;100.00
5413;BME280;2729;50.056;8.678;2023-03-21T06:24:56;100384.53;;;9.09;100.00
5413;BME280;2729;50.056;8.678;2023-03-21T06:27:22;100385.38;;;9.10;100.00
5413;BME280;2729;50.056;8.678;2023-03-21T06:29:52;100379.00;;;9.27;100.00
5413;BME280;2729;50.056;8.678;2023-03-21T06:32:18;100392.06;;;9.24;100.00
5413;BME280;2729;50.056;8.678;2023-03-21T06:34:45;100384.09;;;9.33;100.00
5413;BME280;2729;50.056;8.678;2023-03-21T06:37:14;100394.63;;;9.27;100.00
5413;BME280;2729;50.056;8.678;2023-03-21T06:39:40;100389.31;;;9.32;100.00
5413;BME280;2729;50.056;8.678;2023-03-21T06:42:08;100392.56;;;9.45;100.00
5413;BME280;2729;50.056;8.678;2023-03-21T06:44:34;100394.13;;;9.55;100.00
5413;BME280;2729;50.056;8.678;2023-03-21T06:47:05;100390.38;;;9.68;100.00
5413;BME280;2729;50.056;8.678;2023-03-21T06:49:32;100395.53;;;9.71;100.00
5413;BME280;2729;50.056;8.678;2023-03-21T06:52:06;100382.22;;;9.85;100.00
5413;BME280;2729;50.056;8.678;2023-03-21T06:54:32;100380.13;;;10.02;100.00
5413;BME280;2729;50.056;8.678;2023-03-21T06:57:01;100381.00;;;10.03;100.00
5413;BME280;2729;50.056;8.678;2023-03-21T06:59:30;100379.06;;;10.12;100.00
5413;BME280;2729;50.056;8.678;2023-03-21T07:02:10;100376.94;;;10.31;100.00
5413;BME280;2729;50.056;8.678;2023-03-21T07:04:41;100372.63;;;10.69;100.00
5413;BME280;2729;50.056;8.678;2023-03-21T07:07:13;100372.31;;;10.81;100.00
5413;BME280;2729;50.056;8.678;2023-03-21T07:09:39;100367.97;;;10.81;100.00
5413;BME280;2729;50.056;8.678;2023-03-21T07:12:05;100369.41;;;10.93;100.00
5413;BME280;2729;50.056;8.678;2023-03-21T07:15:02;100379.81;;;10.94;100.00
5413;BME280;2729;50.056;8.678;2023-03-21T07:17:29;100377.72;;;11.09;100.00
5413;BME280;2729;50.056;8.678;2023-03-21T07:19:56;100382.94;;;11.09;100.00
5413;BME280;2729;50.056;8.678;2023-03-21T07:22:22;100384.81;;;11.38;100.00
5413;BME280;2729;50.056;8.678;2023-03-21T07:24:48;100381.66;;;11.57;100.00
5413;BME280;2729;50.056;8.678;2023-03-21T07:27:16;100384.34;;;11.54;100.00
5413;BME280;2729;50.056;8.678;2023-03-21T07:29:44;100387.31;;;11.73;100.00
5413;BME280;2729;50.056;8.678;2023-03-21T07:32:12;100391.41;;;11.83;100.00
5413;BME280;2729;50.056;8.678;2023-03-21T07:34:38;100388.78;;;12.14;100.00
5413;BME280;2729;50.056;8.678;2023-03-21T07:37:04;100389.09;;;12.04;100.00
5413;BME280;2729;50.056;8.678;2023-03-21T07:39:31;100389.31;;;12.26;100.00
5413;BME280;2729;50.056;8.678;2023-03-21T07:41:59;100390.72;;;12.37;100.00
5413;BME280;2729;50.056;8.678;2023-03-21T07:44:33;100395.03;;;12.38;100.00
5413;BME280;2729;50.056;8.678;2023-03-21T07:47:04;100391.75;;;12.60;100.00
5413;BME280;2729;50.056;8.678;2023-03-21T07:49:31;100392.22;;;12.72;100.00
5413;BME280;2729;50.056;8.678;2023-03-21T07:51:58;100387.31;;;12.89;100.00
5413;BME280;2729;50.056;8.678;2023-03-21T07:54:24;100393.31;;;12.93;100.00
5413;BME280;2729;50.056;8.678;2023-03-21T07:56:50;100398.44;;;12.96;100.00
5413;BME280;2729;50.056;8.678;2023-03-21T07:59:16;100386.72;;;13.08;100.00
5413;BME280;2729;50.056;8.678;2023-03-21T08:01:42;100387.06;;;13.25;100.00
5413;BME280;2729;50.056;8.678;2023-03-21T08:04:08;100381.38;;;13.11;100.00
5413;BME280;2729;50.056;8.678;2023-03-21T08:06:34;100381.38;;;13.11;100.00
5413;BME280;2729;50.056;8.678;2023-03-21T08:09:00;100374.53;;;13.33;100.00
5413;BME280;2729;50.056;8.678;2023-03-21T08:11:28;100376.19;;;13.61;99.97
5413;BME280;2729;50.056;8.678;2023-03-21T08:13:57;100377.88;;;13.87;99.83
5413;BME280;2729;50.056;8.678;2023-03-21T08:16:23;100367.72;;;14.01;96.84
5413;BME280;2729;50.056;8.678;2023-03-21T08:18:49;100373.41;;;14.12;95.92
5413;BME280;2729;50.056;8.678;2023-03-21T08:21:15;100379.28;;;13.72;93.18
5413;BME280;2729;50.056;8.678;2023-03-21T08:23:41;100377.41;;;13.75;94.34
5413;BME280;2729;50.056;8.678;2023-03-21T08:26:07;100372.06;;;14.02;92.51
5413;BME280;2729;50.056;8.678;2023-03-21T08:28:34;100369.13;;;13.86;88.87
5413;BME280;2729;50.056;8.678;2023-03-21T08:31:08;100377.75;;;13.90;88.54
5413;BME280;2729;50.056;8.678;2023-03-21T08:33:35;100372.09;;;14.00;90.95
5413;BME280;2729;50.056;8.678;2023-03-21T08:36:03;100365.53;;;14.12;89.41
5413;BME280;2729;50.056;8.678;2023-03-21T08:38:30;100376.72;;;14.17;85.17
5413;BME280;2729;50.056;8.678;2023-03-21T08:40:59;100370.88;;;14.32;85.73
5413;BME280;2729;50.056;8.678;2023-03-21T08:43:26;100375.09;;;14.36;85.64
5413;BME280;2729;50.056;8.678;2023-03-21T08:45:54;100371.59;;;14.59;84.28
5413;BME280;2729;50.056;8.678;2023-03-21T08:48:21;100377.59;;;14.39;83.07
5413;BME280;2729;50.056;8.678;2023-03-21T08:50:47;100377.41;;;14.22;83.63
5413;BME280;2729;50.056;8.678;2023-03-21T08:53:13;100379.38;;;14.39;85.52
5413;BME280;2729;50.056;8.678;2023-03-21T08:55:39;100380.53;;;14.32;85.37
5413;BME280;2729;50.056;8.678;2023-03-21T08:58:05;100383.78;;;14.38;85.35
5413;BME280;2729;50.056;8.678;2023-03-21T09:00:31;100379.25;;;14.65;85.92
5413;BME280;2729;50.056;8.678;2023-03-21T09:02:57;100376.47;;;14.46;84.87
5413;BME280;2729;50.056;8.678;2023-03-21T09:05:24;100379.06;;;14.48;88.14
5413;BME280;2729;50.056;8.678;2023-03-21T09:07:51;100377.28;;;14.48;87.23
5413;BME280;2729;50.056;8.678;2023-03-21T09:10:20;100369.22;;;14.53;87.86
5413;BME280;2729;50.056;8.678;2023-03-21T09:12:48;100372.31;;;14.85;85.26
5413;BME280;2729;50.056;8.678;2023-03-21T09:15:14;100375.75;;;14.87;84.00
5413;BME280;2729;50.056;8.678;2023-03-21T09:17:40;100374.81;;;14.88;85.54
5413;BME280;2729;50.056;8.678;2023-03-21T09:20:15;100369.94;;;15.21;84.32
5413;BME280;2729;50.056;8.678;2023-03-21T09:22:47;100374.16;;;14.61;85.05
5413;BME280;2729;50.056;8.678;2023-03-21T09:25:15;100368.16;;;15.01;84.04
5413;BME280;2729;50.056;8.678;2023-03-21T09:27:41;100375.66;;;15.10;86.25
5413;BME280;2729;50.056;8.678;2023-03-21T09:30:20;100374.00;;;15.28;83.17
5413;BME280;2729;50.056;8.678;2023-03-21T09:32:47;100378.28;;;15.10;84.72
5413;BME280;2729;50.056;8.678;2023-03-21T09:35:16;100371.50;;;15.45;85.30
5413;BME280;2729;50.056;8.678;2023-03-21T09:37:44;100372.63;;;15.39;82.92
5413;BME280;2729;50.056;8.678;2023-03-21T09:40:22;100369.00;;;15.42;84.73
5413;BME280;2729;50.056;8.678;2023-03-21T09:45:54;100370.19;;;15.15;85.49
5413;BME280;2729;50.056;8.678;2023-03-21T09:48:49;100376.25;;;15.37;85.36
5413;BME280;2729;50.056;8.678;2023-03-21T09:51:19;100363.00;;;15.60;83.44
5413;BME280;2729;50.056;8.678;2023-03-21T09:53:47;100369.94;;;15.21;84.98
5413;BME280;2729;50.056;8.678;2023-03-21T09:56:15;100358.09;;;15.31;87.25
5413;BME280;2729;50.056;8.678;2023-03-21T09:58:48;100368.63;;;15.31;85.12
5413;BME280;2729;50.056;8.678;2023-03-21T10:01:20;100375.75;;;14.87;82.78
5413;BME280;2729;50.056;8.678;2023-03-21T10:04:05;100372.16;;;15.09;84.41
5413;BME280;2729;50.056;8.678;2023-03-21T10:06:34;100374.34;;;15.20;82.42
5413;BME280;2729;50.056;8.678;2023-03-21T10:09:14;100366.66;;;15.36;82.85
5413;BME280;2729;50.056;8.678;2023-03-21T10:11:47;100367.78;;;15.30;84.01
5413;BME280;2729;50.056;8.678;2023-03-21T10:14:28;100366.78;;;15.53;83.87
5413;BME280;2729;50.056;8.678;2023-03-21T10:17:28;100360.72;;;15.51;80.51
5413;BME280;2729;50.056;8.678;2023-03-21T10:20:15;100363.63;;;15.45;82.64
5413;BME280;2729;50.056;8.678;2023-03-21T10:22:43;100365.38;;;15.66;81.48
5413;BME280;2729;50.056;8.678;2023-03-21T10:25:15;100362.19;;;15.38;79.26
5413;BME280;2729;50.056;8.678;2023-03-21T10:27:41;100360.19;;;15.65;80.84
5413;BME280;2729;50.056;8.678;2023-03-21T10:30:18;100352.94;;;15.70;82.24
5413;BME280;2729;50.056;8.678;2023-03-21T10:32:44;100357.44;;;16.05;82.76
5413;BME280;2729;50.056;8.678;2023-03-21T10:35:12;100348.75;;;15.85;80.56
5413;BME280;2729;50.056;8.678;2023-03-21T10:37:38;100345.34;;;16.01;79.75
5413;BME280;2729;50.056;8.678;2023-03-21T10:40:06;100350.56;;;16.03;81.38
5413;BME280;2729;50.056;8.678;2023-03-21T10:42:34;100350.47;;;15.86;82.55
5413;BME280;2729;50.056;8.678;2023-03-21T10:45:01;100357.22;;;15.72;79.87
5413;BME280;2729;50.056;8.678;2023-03-21T10:47:31;100353.78;;;15.70;79.89
5413;BME280;2729;50.056;8.678;2023-03-21T10:50:04;100356.84;;;15.39;81.66
5413;BME280;2729;50.056;8.678;2023-03-21T10:52:32;100355.00;;;15.63;82.91
5413;BME280;2729;50.056;8.678;2023-03-21T10:55:20;100352.78;;;15.32;87.06
5413;BME280;2729;50.056;8.678;2023-03-21T10:57:52;100354.94;;;15.23;87.64
5413;BME280;2729;50.056;8.678;2023-03-21T11:00:21;100349.81;;;15.40;97.60
5413;BME280;2729;50.056;8.678;2023-03-21T11:02:50;100353.34;;;15.61;97.83
5413;BME280;2729;50.056;8.678;2023-03-21T11:08:11;100359.34;;;15.22;90.59
5413;BME280;2729;50.056;8.678;2023-03-21T11:11:03;100357.78;;;15.18;96.72
5413;BME280;2729;50.056;8.678;2023-03-21T11:13:40;100358.16;;;15.09;100.00
5413;BME280;2729;50.056;8.678;2023-03-21T11:16:10;100356.72;;;15.42;100.00
5413;BME280;2729;50.056;8.678;2023-03-21T11:18:43;100351.13;;;15.09;100.00
5413;BME280;2729;50.056;8.678;2023-03-21T11:21:11;100356.13;;;14.95;100.00
5413;BME280;2729;50.056;8.678;2023-03-21T11:23:41;100356.50;;;14.86;100.00
5413;BME280;2729;50.056;8.678;2023-03-21T11:26:18;100354.28;;;15.18;100.00
5413;BME280;2729;50.056;8.678;2023-03-21T11:28:49;100363.09;;;15.17;100.00
5413;BME280;2729;50.056;8.678;2023-03-21T11:31:16;100353.00;;;14.86;100.00
5413;BME280;2729;50.056;8.678;2023-03-21T11:33:51;100350.44;;;14.84;100.00
5413;BME280;2729;50.056;8.678;2023-03-21T11:41:39;100357.34;;;14.87;100.00
5413;BME280;2729;50.056;8.678;2023-03-21T11:44:05;100347.78;;;14.64;100.00
5413;BME280;2729;50.056;8.678;2023-03-21T11:46:39;100351.75;;;14.74;100.00
5413;BME280;2729;50.056;8.678;2023-03-21T11:49:07;100354.59;;;14.90;100.00
5413;BME280;2729;50.056;8.678;2023-03-21T11:52:02;100349.78;;;14.79;100.00
5413;BME280;2729;50.056;8.678;2023-03-21T11:57:15;100345.03;;;15.09;100.00
5413;BME280;2729;50.056;8.678;2023-03-21T12:05:36;100344.00;;;14.49;100.00
5413;BME280;2729;50.056;8.678;2023-03-21T12:11:10;100338.84;;;14.68;100.00
5413;BME280;2729;50.056;8.678;2023-03-21T12:14:06;100337.63;;;14.76;100.00
5413;BME280;2729;50.056;8.678;2023-03-21T12:16:52;100330.25;;;14.64;100.00
5413;BME280;2729;50.056;8.678;2023-03-21T12:19:37;100322.16;;;14.69;100.00
5413;BME280;2729;50.056;8.678;2023-03-21T12:22:20;100320.28;;;14.51;100.00
5413;BME280;2729;50.056;8.678;2023-03-21T12:24:55;100311.81;;;14.44;100.00
5413;BME280;2729;50.056;8.678;2023-03-21T12:33:37;100309.09;;;14.67;100.00
5413;BME280;2729;50.056;8.678;2023-03-21T12:35:53;100299.31;;;14.71;100.00
5413;BME280;2729;50.056;8.678;2023-03-21T12:38:24;100295.19;;;15.06;100.00
5413;BME280;2729;50.056;8.678;2023-03-21T12:41:02;100293.44;;;14.44;100.00
5413;BME280;2729;50.056;8.678;2023-03-21T12:43:48;100289.56;;;14.95;100.00
5413;BME280;2729;50.056;8.678;2023-03-21T12:46:28;100286.25;;;15.10;100.00
5413;BME280;2729;50.056;8.678;2023-03-21T12:49:06;100277.47;;;15.11;100.00
5413;BME280;2729;50.056;8.678;2023-03-21T12:51:41;100278.97;;;15.17;100.00
5413;BME280;2729;50.056;8.678;2023-03-21T12:54:27;100274.25;;;15.04;100.00
5413;BME280;2729;50.056;8.678;2023-03-21T12:57:02;100272.94;;;14.94;100.00
5413;BME280;2729;50.056;8.678;2023-03-21T12:59:38;100270.56;;;15.08;100.00
5413;BME280;2729;50.056;8.678;2023-03-21T13:02:16;100267.31;;;14.61;100.00
5413;BME280;2729;50.056;8.678;2023-03-21T13:04:47;100268.31;;;14.79;100.00
5413;BME280;2729;50.056;8.678;2023-03-21T13:07:17;100264.50;;;14.66;100.00
5413;BME280;2729;50.056;8.678;2023-03-21T13:09:45;100256.94;;;14.58;100.00
5413;BME280;2729;50.056;8.678;2023-03-21T13:18:03;100264.16;;;14.31;100.00
5413;BME280;2729;50.056;8.678;2023-03-21T13:20:44;100252.91;;;14.28;100.00
5413;BME280;2729;50.056;8.678;2023-03-21T13:23:12;100255.66;;;14.25;100.00
5413;BME280;2729;50.056;8.678;2023-03-21T13:25:45;100254.25;;;14.60;100.00
5413;BME280;2729;50.056;8.678;2023-03-21T13:28:28;100250.44;;;14.67;100.00
5413;BME280;2729;50.056;8.678;2023-03-21T13:31:14;100248.81;;;14.64;100.00
5413;BME280;2729;50.056;8.678;2023-03-21T13:33:44;100248.59;;;14.48;100.00
5413;BME280;2729;50.056;8.678;2023-03-21T13:36:15;100251.28;;;14.47;100.00
5413;BME280;2729;50.056;8.678;2023-03-21T13:38:48;100254.25;;;14.16;100.00
5413;BME280;2729;50.056;8.678;2023-03-21T13:41:18;100254.44;;;14.33;100.00
5413;BME280;2729;50.056;8.678;2023-03-21T13:46:59;100246.38;;;14.16;100.00
5413;BME280;2729;50.056;8.678;2023-03-21T13:49:35;100241.06;;;14.39;100.00
5413;BME280;2729;50.056;8.678;2023-03-21T13:52:25;100238.16;;;14.03;100.00
5413;BME280;2729;50.056;8.678;2023-03-21T13:54:55;100237.19;;;14.06;100.00
5413;BME280;2729;50.056;8.678;2023-03-21T13:57:36;100237.84;;;14.11;100.00
5413;BME280;2729;50.056;8.678;2023-03-21T14:00:21;100241.13;;;14.16;100.00
5413;BME280;2729;50.056;8.678;2023-03-21T14:02:54;100234.38;;;14.10;100.00
5413;BME280;2729;50.056;8.678;2023-03-21T14:05:23;100221.84;;;14.17;100.00
5413;BME280;2729;50.056;8.678;2023-03-21T14:07:54;100223.38;;;14.23;100.00
5413;BME280;2729;50.056;8.678;2023-03-21T14:10:25;100219.91;;;14.00;100.00
5413;BME280;2729;50.056;8.678;2023-03-21T14:12:54;100219.78;;;13.81;100.00
5413;BME280;2729;50.056;8.678;2023-03-21T14:15:25;100220.69;;;14.02;100.00